createdAt,value
2022-09-04T00:00:29.001Z,101152.11
2022-09-04T00:03:49.103Z,101149.03
2022-09-04T00:06:59.771Z,101157.59
2022-09-04T00:10:42.072Z,101157.59
2022-09-04T00:13:56.218Z,101164.81
2022-09-04T00:17:08.933Z,101163.42
2022-09-04T00:20:18.984Z,101171.14
2022-09-04T00:23:41.339Z,101177.18
2022-09-04T00:27:14.328Z,101171.49
2022-09-04T00:30:26.467Z,101170.29
2022-09-04T00:33:51.539Z,101170.64
2022-09-04T00:37:01.389Z,101170.81
2022-09-04T00:40:20.453Z,101169.95
2022-09-04T00:43:56.522Z,101176.82
2022-09-04T00:47:23.578Z,101171.67
2022-09-04T00:50:40.081Z,101168.75
2022-09-04T00:54:21.876Z,101170.11
2022-09-04T00:58:14.315Z,101165.31
2022-09-04T01:01:20.373Z,101165.47
2022-09-04T01:04:38.833Z,101159.83
2022-09-04T01:07:56.470Z,101149.16
2022-09-04T01:11:42.899Z,101144.02
2022-09-04T01:15:03.881Z,101149.34
2022-09-04T01:18:51.928Z,101147.27
2022-09-04T01:22:38.124Z,101151.91
2022-09-04T01:26:25.882Z,101149.66
2022-09-04T01:29:54.771Z,101154.47
2022-09-04T01:33:40.866Z,101148.63
2022-09-04T01:36:55.439Z,101144.16
2022-09-04T01:40:07.628Z,101153.62
2022-09-04T01:43:29.259Z,101152.42
2022-09-04T01:46:56.632Z,101152.75
2022-09-04T01:50:12.309Z,101145.88
2022-09-04T01:53:33.715Z,101144.01
2022-09-04T01:56:54.007Z,101148.11
2022-09-04T02:00:10.631Z,101152.94
2022-09-04T02:03:34.913Z,101150.00
2022-09-04T02:07:04.109Z,101141.77
2022-09-04T02:10:19.397Z,101142.11
2022-09-04T02:14:02.739Z,101140.20
2022-09-04T02:17:38.797Z,101131.63
2022-09-04T02:20:46.530Z,101128.72
2022-09-04T02:24:07.406Z,101121.83
2022-09-04T02:27:32.205Z,101122.84
2022-09-04T02:30:38.574Z,101127.64
2022-09-04T02:34:10.235Z,101125.73
2022-09-04T02:37:42.704Z,101131.04
2022-09-04T02:41:14.390Z,101129.84
2022-09-04T02:44:43.789Z,101135.83
2022-09-04T02:48:02.745Z,101132.22
2022-09-04T02:52:00.570Z,101135.13
2022-09-04T02:55:31.051Z,101144.09
2022-09-04T02:58:54.015Z,101147.88
2022-09-04T03:02:14.137Z,101155.44
2022-09-04T03:05:40.965Z,101160.20
2022-09-04T03:09:01.051Z,101148.19
2022-09-04T03:12:42.324Z,101159.16
2022-09-04T03:16:13.822Z,101158.13
2022-09-04T03:19:30.077Z,101166.52
2022-09-04T03:22:46.895Z,101168.03
2022-09-04T03:26:28.282Z,101174.72
2022-09-04T03:29:47.966Z,101170.41
2022-09-04T03:33:06.191Z,101169.03
2022-09-04T03:36:26.296Z,101173.11
2022-09-04T03:39:55.867Z,101177.22
2022-09-04T03:43:32.673Z,101173.77
2022-09-04T03:46:43.121Z,101180.47
2022-09-04T03:50:24.154Z,101185.98
2022-09-04T03:53:57.727Z,101186.16
2022-09-04T03:57:29.453Z,101182.71
2022-09-04T04:00:36.351Z,101191.11
2022-09-04T04:04:39.333Z,101188.36
2022-09-04T04:08:17.031Z,101196.80
2022-09-04T04:11:43.271Z,101198.84
2022-09-04T04:15:00.639Z,101200.25
2022-09-04T04:18:38.647Z,101210.22
2022-09-04T04:22:23.943Z,101220.20
2022-09-04T04:25:52.386Z,101224.66
2022-09-04T04:29:20.783Z,101220.54
2022-09-04T04:32:47.513Z,101228.11
2022-09-04T04:36:08.300Z,101228.81
2022-09-04T04:39:32.135Z,101228.31
2022-09-04T04:43:05.902Z,101223.69
2022-09-04T04:46:34.305Z,101219.77
2022-09-04T04:50:14.821Z,101224.93
2022-09-04T04:53:52.020Z,101227.51
2022-09-04T04:57:20.795Z,101239.49
2022-09-04T05:00:34.315Z,101233.50
2022-09-04T05:04:00.874Z,101228.88
2022-09-04T05:07:11.834Z,101233.67
2022-09-04T05:10:47.751Z,101240.20
2022-09-04T05:14:21.514Z,101232.83
2022-09-04T05:18:11.814Z,101231.26
2022-09-04T05:21:30.161Z,101229.72
2022-09-04T05:24:47.091Z,101233.33
2022-09-04T05:28:23.361Z,101230.25
2022-09-04T05:31:55.223Z,101238.48
2022-09-04T05:35:37.097Z,101238.89
2022-09-04T05:39:30.910Z,101238.89
2022-09-04T05:42:57.618Z,101244.23
2022-09-04T05:46:22.418Z,101244.59
2022-09-04T05:49:38.275Z,101235.52
2022-09-04T05:53:24.526Z,101243.10
2022-09-04T05:57:18.607Z,101241.58
2022-09-04T06:00:30.218Z,101242.77
2022-09-04T06:04:05.338Z,101258.06
2022-09-04T06:07:37.783Z,101258.11
2022-09-04T06:11:12.792Z,101258.97
2022-09-04T06:14:44.703Z,101258.99
2022-09-04T06:17:58.383Z,101261.23
2022-09-04T06:21:24.620Z,101262.41
2022-09-04T06:24:56.983Z,101264.16
2022-09-04T06:28:36.852Z,101271.70
2022-09-04T06:32:03.999Z,101274.27
2022-09-04T06:35:30.116Z,101274.11
2022-09-04T06:39:05.354Z,101279.95
2022-09-04T06:42:41.325Z,101277.48
2022-09-04T06:46:05.367Z,101283.13
2022-09-04T06:49:42.998Z,101287.58
2022-09-04T06:53:14.697Z,101296.69
2022-09-04T06:56:51.336Z,101288.58
2022-09-04T07:00:25.386Z,101291.30
2022-09-04T07:03:59.867Z,101291.09
2022-09-04T07:07:27.964Z,101293.99
2022-09-04T07:10:41.672Z,101296.20
2022-09-04T07:14:20.647Z,101294.28
2022-09-04T07:17:58.453Z,101294.09
2022-09-04T07:21:14.953Z,101298.37
2022-09-04T07:24:45.037Z,101295.25
2022-09-04T07:28:22.564Z,101295.90
2022-09-04T07:31:59.660Z,101304.67
2022-09-04T07:35:35.030Z,101295.66
2022-09-04T07:38:57.081Z,101296.81
2022-09-04T07:42:07.158Z,101295.38
2022-09-04T07:45:38.013Z,101295.33
2022-09-04T07:49:00.488Z,101293.75
2022-09-04T07:52:47.064Z,101287.18
2022-09-04T07:56:14.749Z,101297.83
2022-09-04T07:59:52.902Z,101289.88
2022-09-04T08:03:34.913Z,101289.00
2022-09-04T08:06:53.126Z,101285.02
2022-09-04T08:10:22.658Z,101291.80
2022-09-04T08:13:52.357Z,101287.20
2022-09-04T08:17:10.707Z,101299.25
2022-09-04T08:20:35.630Z,101299.62
2022-09-04T08:24:05.440Z,101299.30
2022-09-04T08:27:44.176Z,101299.23
2022-09-04T08:31:06.023Z,101302.23
2022-09-04T08:34:51.875Z,101303.27
2022-09-04T08:38:48.950Z,101293.45
2022-09-04T08:42:27.745Z,101298.61
2022-09-04T08:45:50.449Z,101286.62
2022-09-04T08:49:40.801Z,101290.13
2022-09-04T08:57:10.241Z,101280.97
2022-09-04T09:00:56.905Z,101282.34
2022-09-04T09:04:32.938Z,101284.45
2022-09-04T09:08:12.271Z,101292.24
2022-09-04T09:11:45.759Z,101284.89
2022-09-04T09:15:21.950Z,101282.41
2022-09-04T09:18:55.950Z,101285.20
2022-09-04T09:22:09.009Z,101282.89
2022-09-04T09:25:34.673Z,101292.28
2022-09-04T09:29:17.052Z,101291.98
2022-09-04T09:33:02.712Z,101294.96
2022-09-04T09:36:24.940Z,101285.70
2022-09-04T09:39:48.452Z,101288.36
2022-09-04T09:43:26.209Z,101280.12
2022-09-04T09:47:11.915Z,101283.00
2022-09-04T09:50:40.612Z,101282.03
2022-09-04T09:54:24.161Z,101307.50
2022-09-04T09:57:53.244Z,101300.86
2022-09-04T10:01:23.838Z,101298.03
2022-09-04T10:05:06.813Z,101304.79
2022-09-04T10:08:48.647Z,101321.00
2022-09-04T10:12:00.599Z,101302.75
2022-09-04T10:15:49.992Z,101299.72
2022-09-04T10:19:53.210Z,101301.30
2022-09-04T10:23:41.025Z,101302.28
2022-09-04T10:27:03.371Z,101295.81
2022-09-04T10:30:26.028Z,101292.11
2022-09-04T10:33:43.781Z,101307.34
2022-09-04T10:37:24.250Z,101306.23
2022-09-04T10:40:51.302Z,101309.86
2022-09-04T10:44:44.339Z,101301.55
2022-09-04T10:48:09.019Z,101300.41
2022-09-04T10:51:26.240Z,101305.61
2022-09-04T10:55:19.719Z,101318.72
2022-09-04T10:58:36.901Z,101315.07
2022-09-04T11:02:13.068Z,101310.94
2022-09-04T11:05:27.761Z,101304.31
2022-09-04T11:08:51.809Z,101313.03
2022-09-04T11:12:28.963Z,101313.95
2022-09-04T11:16:03.215Z,101309.45
2022-09-04T11:19:47.851Z,101298.78
2022-09-04T11:23:22.537Z,101298.00
2022-09-04T11:27:08.058Z,101293.22
2022-09-04T11:30:26.092Z,101284.51
2022-09-04T11:34:03.263Z,101280.45
2022-09-04T11:37:30.587Z,101277.37
2022-09-04T11:41:03.186Z,101282.39
2022-09-04T11:44:37.546Z,101288.86
2022-09-04T11:48:15.113Z,101293.00
2022-09-04T11:51:54.802Z,101286.00
2022-09-04T11:55:44.245Z,101287.56
2022-09-04T11:59:30.393Z,101282.43
2022-09-04T12:02:55.797Z,101287.63
2022-09-04T12:06:43.362Z,101274.24
2022-09-04T12:10:21.948Z,101288.41
2022-09-04T12:14:16.526Z,101283.58
2022-09-04T12:17:42.879Z,101279.12
2022-09-04T12:21:12.931Z,101276.56
2022-09-04T12:24:32.181Z,101268.00
2022-09-04T12:27:56.971Z,101264.48
2022-09-04T12:31:40.290Z,101266.92
2022-09-04T12:35:07.074Z,101270.23
2022-09-04T12:38:58.693Z,101272.59
2022-09-04T12:42:45.741Z,101254.75
2022-09-04T12:46:24.130Z,101268.98
2022-09-04T12:50:15.358Z,101262.10
2022-09-04T12:54:06.942Z,101265.22
2022-09-04T12:57:32.389Z,101261.47
2022-09-04T13:00:47.203Z,101256.05
2022-09-04T13:03:56.213Z,101256.36
2022-09-04T13:07:16.604Z,101255.28
2022-09-04T13:10:45.182Z,101255.41
2022-09-04T13:14:05.620Z,101254.75
2022-09-04T13:17:25.457Z,101266.94
2022-09-04T13:20:50.985Z,101258.36
2022-09-04T13:24:18.584Z,101259.31
2022-09-04T13:27:51.751Z,101258.91
2022-09-04T13:31:05.942Z,101272.34
2022-09-04T13:34:19.961Z,101268.84
2022-09-04T13:37:52.625Z,101275.89
2022-09-04T13:41:39.244Z,101275.68
2022-09-04T13:45:16.535Z,101283.78
2022-09-04T13:48:44.411Z,101286.41
2022-09-04T13:52:03.032Z,101293.12
2022-09-04T13:55:18.356Z,101291.19
2022-09-04T13:58:49.306Z,101289.47
2022-09-04T14:01:58.773Z,101286.33
2022-09-04T14:05:03.848Z,101298.19
2022-09-04T14:08:20.669Z,101299.66
2022-09-04T14:11:55.317Z,101303.05
2022-09-04T14:15:24.109Z,101301.53
2022-09-04T14:19:10.806Z,101296.23
2022-09-04T14:22:16.724Z,101291.63
2022-09-04T14:25:33.422Z,101294.53
2022-09-04T14:29:21.853Z,101296.09
2022-09-04T14:33:00.831Z,101292.64
2022-09-04T14:36:37.577Z,101288.63
2022-09-04T14:40:16.188Z,101288.53
2022-09-04T14:44:03.679Z,101286.28
2022-09-04T14:47:57.291Z,101295.45
2022-09-04T14:51:08.393Z,101287.53
2022-09-04T14:54:16.389Z,101288.79
2022-09-04T14:57:50.699Z,101295.91
2022-09-04T15:01:21.649Z,101298.79
2022-09-04T15:04:34.399Z,101292.45
2022-09-04T15:08:08.930Z,101288.24
2022-09-04T15:11:29.283Z,101282.92
2022-09-04T15:14:47.335Z,101290.98
2022-09-04T15:17:58.116Z,101286.09
2022-09-04T15:21:21.363Z,101285.07
2022-09-04T15:25:02.244Z,101291.69
2022-09-04T15:28:26.935Z,101290.72
2022-09-04T15:31:49.060Z,101293.56
2022-09-04T15:34:58.004Z,101296.32
2022-09-04T15:38:23.480Z,101295.01
2022-09-04T15:41:57.675Z,101295.44
2022-09-04T15:45:05.882Z,101295.31
2022-09-04T15:48:41.775Z,101300.28
2022-09-04T15:52:10.097Z,101298.20
2022-09-04T15:55:44.126Z,101309.83
2022-09-04T15:59:09.304Z,101309.48
2022-09-04T16:02:25.829Z,101308.05
2022-09-04T16:05:59.622Z,101318.13
2022-09-04T16:09:21.699Z,101315.97
2022-09-04T16:12:30.795Z,101317.61
2022-09-04T16:15:55.817Z,101322.84
2022-09-04T16:19:31.167Z,101320.72
2022-09-04T16:23:12.821Z,101323.78
2022-09-04T16:26:32.848Z,101328.05
2022-09-04T16:29:51.567Z,101330.92
2022-09-04T16:32:57.257Z,101333.04
2022-09-04T16:36:04.114Z,101332.22
2022-09-04T16:39:46.093Z,101333.86
2022-09-04T16:43:04.247Z,101330.57
2022-09-04T16:46:43.661Z,101340.33
2022-09-04T16:50:20.497Z,101339.14
2022-09-04T16:53:35.475Z,101339.16
2022-09-04T16:57:12.087Z,101341.80
2022-09-04T17:00:15.243Z,101350.80
2022-09-04T17:03:35.426Z,101352.83
2022-09-04T17:07:00.031Z,101364.83
2022-09-04T17:10:37.230Z,101359.09
2022-09-04T17:13:50.394Z,101357.45
2022-09-04T17:17:30.195Z,101366.81
2022-09-04T17:20:41.963Z,101374.31
2022-09-04T17:29:02.864Z,101379.37
2022-09-04T17:29:12.860Z,101373.75
2022-09-04T17:30:28.883Z,101387.60
2022-09-04T17:39:30.269Z,101387.66
2022-09-04T17:40:41.419Z,101382.17
2022-09-04T17:40:56.106Z,101383.23
2022-09-04T17:43:22.621Z,101384.48
2022-09-04T17:46:14.454Z,101385.69
2022-09-04T17:49:36.260Z,101384.12
2022-09-04T17:52:48.865Z,101392.75
2022-09-04T17:55:58.819Z,101387.59
2022-09-04T17:59:24.546Z,101392.06
2022-09-04T18:03:02.730Z,101387.94
2022-09-04T18:06:28.090Z,101380.19
2022-09-04T18:09:43.430Z,101383.47
2022-09-04T18:13:36.630Z,101384.66
2022-09-04T18:17:11.095Z,101387.22
2022-09-04T18:20:19.620Z,101389.09
2022-09-04T18:24:07.378Z,101385.62
2022-09-04T18:27:26.982Z,101393.84
2022-09-04T18:36:50.020Z,101388.11
2022-09-04T18:37:23.605Z,101399.08
2022-09-04T18:37:45.074Z,101400.58
2022-09-04T18:44:41.808Z,101399.37
2022-09-04T18:50:30.192Z,101398.42
2022-09-04T18:50:43.621Z,101394.55
2022-09-04T18:51:38.174Z,101404.91
2022-09-04T18:54:59.406Z,101400.41
2022-09-04T18:58:11.265Z,101413.55
2022-09-04T19:01:28.147Z,101409.38
2022-09-04T19:04:55.269Z,101407.65
2022-09-04T19:08:13.391Z,101411.72
2022-09-04T19:11:28.376Z,101406.22
2022-09-04T19:14:42.751Z,101409.58
2022-09-04T19:17:51.115Z,101406.82
2022-09-04T19:21:14.151Z,101412.95
2022-09-04T19:24:46.658Z,101406.92
2022-09-04T19:28:07.912Z,101410.80
2022-09-04T19:31:21.586Z,101413.16
2022-09-04T19:34:55.464Z,101409.19
2022-09-04T19:42:02.922Z,101407.73
2022-09-04T19:46:03.556Z,101411.42
2022-09-04T19:46:26.494Z,101414.30
2022-09-04T19:48:16.216Z,101409.80
2022-09-04T19:53:29.945Z,101408.69
2022-09-04T19:55:23.858Z,101417.70
2022-09-04T19:58:25.106Z,101428.08
2022-09-04T20:01:35.590Z,101425.11
2022-09-04T20:04:55.146Z,101428.33
2022-09-04T20:08:18.097Z,101423.09
2022-09-04T20:11:41.568Z,101429.91
2022-09-04T20:14:57.253Z,101426.42
2022-09-04T20:18:24.708Z,101437.31
2022-09-04T20:21:44.799Z,101434.70
2022-09-04T20:25:07.050Z,101438.33
2022-09-04T20:28:36.562Z,101440.69
2022-09-04T20:31:56.058Z,101438.75
2022-09-04T20:35:33.253Z,101440.05
2022-09-04T20:38:55.879Z,101440.66
2022-09-04T20:42:08.485Z,101440.20
2022-09-04T20:47:14.903Z,101446.29
2022-09-04T20:52:53.162Z,101445.87
2022-09-04T20:52:56.684Z,101435.38
2022-09-04T20:55:18.803Z,101437.45
2022-09-04T21:03:14.626Z,101443.91
2022-09-04T21:03:20.991Z,101443.11
2022-09-04T21:06:09.767Z,101444.35
2022-09-04T21:09:39.076Z,101443.27
2022-09-04T21:13:12.292Z,101445.80
2022-09-04T21:16:08.037Z,101454.50
2022-09-04T21:19:54.295Z,101450.92
2022-09-04T21:23:23.669Z,101449.12
2022-09-04T21:26:41.846Z,101443.87
2022-09-04T21:30:05.828Z,101453.16
2022-09-04T21:33:35.970Z,101445.77
2022-09-04T21:36:56.956Z,101443.67
2022-09-04T21:40:51.388Z,101444.02
2022-09-04T21:44:24.863Z,101455.60
2022-09-04T21:47:45.045Z,101450.22
2022-09-04T21:51:15.709Z,101456.03
2022-09-04T21:57:51.813Z,101453.53
2022-09-04T22:02:36.670Z,101451.64
2022-09-04T22:02:49.309Z,101453.00
2022-09-04T22:05:38.090Z,101449.72
2022-09-04T22:13:27.333Z,101453.66
2022-09-04T22:13:38.524Z,101449.27
2022-09-04T22:16:19.018Z,101452.71
2022-09-04T22:20:10.493Z,101451.45
2022-09-04T22:23:39.339Z,101456.70
2022-09-04T22:27:26.059Z,101454.41
2022-09-04T22:30:33.374Z,101456.78
2022-09-04T22:34:15.077Z,101448.94
2022-09-04T22:37:14.724Z,101446.20
2022-09-04T22:40:55.923Z,101448.20
2022-09-04T22:43:46.913Z,101453.50
2022-09-04T22:47:16.305Z,101451.05
2022-09-04T22:50:49.986Z,101453.05
2022-09-04T22:54:16.414Z,101454.94
2022-09-04T22:57:45.294Z,101454.35
2022-09-04T23:01:19.210Z,101452.33
2022-09-04T23:04:31.283Z,101454.32
2022-09-04T23:13:42.563Z,101457.61
2022-09-04T23:13:49.617Z,101461.25
2022-09-04T23:15:46.352Z,101461.01
2022-09-04T23:20:39.736Z,101459.78
2022-09-04T23:26:49.215Z,101465.44
2022-09-04T23:26:58.157Z,101458.65
2022-09-04T23:30:02.386Z,101458.44
2022-09-04T23:33:31.429Z,101455.88
2022-09-04T23:37:16.051Z,101458.28
2022-09-04T23:40:51.191Z,101461.28
2022-09-04T23:44:32.171Z,101461.28
2022-09-04T23:48:20.927Z,101454.88
2022-09-04T23:52:01.302Z,101453.16
2022-09-04T23:55:36.578Z,101459.09
2022-09-04T23:59:35.455Z,101449.69
